Terminal Aerodrome Forecast
Issued by NWS Cleveland, OH

Home | Current Version | Previous Version | Text Only | Print | Product List | Glossary On
Versions: 1 2 3 4 5 6 7 8 9 10 11 12 13 14 15 16 17 18 19 20 21
000
FTUS41 KCLE 222333
TAFCLE
TAF
KCLE 222333Z 2300/2406 04008KT P6SM FEW250
     FM230100 VRB03KT P6SM FEW250
     FM231700 01010KT P6SM FEW250
     FM240100 VRB03KT P6SM FEW250=

USA.gov is the U.S. government's official web portal to all federal, state and local government web resources and services.